Accueil
METAR-TAF:

METAR-TAF

Aéroports :

Wilkes County Airport

North Wilkesboro, Caroline du Nord, États-Unis

latitude: 36-13N, longitude: 081-05W, altitude: 396 m

Observation

Le bulletin a été fait il y a 26 minutes, à 21:35 UTC
Vent 11 kt de ouest avec des rafales jusqu'à 21 kt, variant entre sud-ouest et ouest/nord-ouest
Température 6°C
Humidité 52%
Pression 1015 hPa
Visibilité: 16.1 km
Nuages épars à une hauteur de 5000 ft
Nuages fragmentés à une hauteur de 7000 ft
Nuages fragmentés à une hauteur de 9000 ft

METAR: KUKF 282135Z AUTO 27011G21KT 230V290 10SM SCT050 BKN070 BKN090 06/M03 A2998 RMK AO2

Heure: 17:01 (22:01 UTC)


TAF: absent

Observations et prévisions météorologiques de plus de 4000 aéroports (messages METAR et TAF).

Les stations disponibles sont représentées par des disques jaunes et rouges sur la carte.

Passer la souris dessus pour voir le nom de la station.

Cliquer dessus pour voir les observations et prévisions météorologiques.

Pour changer de carte: cliquez sur les boutons verts avec une croix noire pour zoomer, sur le bouton vert avec un tiret pour effectuer un zoom arrière, ou sur les flèches vertes pour les cartes adjacentes.


METAR-TAF: